sensor_id;sensor_type;location;lat;lon;timestamp;pressure;altitude;pressure_sealevel;temperature;humidity
18167;BME280;9208;42.688;23.404;2023-02-28T00:01:30;95945.97;;;8.15;100.00
18167;BME280;9208;42.688;23.404;2023-02-28T00:03:55;95955.81;;;8.12;100.00
18167;BME280;9208;42.688;23.404;2023-02-28T00:06:21;95953.25;;;8.09;100.00
18167;BME280;9208;42.688;23.404;2023-02-28T00:08:47;95964.97;;;8.18;100.00
18167;BME280;9208;42.688;23.404;2023-02-28T00:11:14;95960.75;;;8.26;100.00
18167;BME280;9208;42.688;23.404;2023-02-28T00:13:43;95967.28;;;8.29;100.00
18167;BME280;9208;42.688;23.404;2023-02-28T00:16:13;95968.41;;;8.31;100.00
18167;BME280;9208;42.688;23.404;2023-02-28T00:18:40;95969.13;;;8.32;100.00
18167;BME280;9208;42.688;23.404;2023-02-28T00:21:07;95964.56;;;8.29;100.00
18167;BME280;9208;42.688;23.404;2023-02-28T00:23:33;95967.78;;;8.27;100.00
18167;BME280;9208;42.688;23.404;2023-02-28T00:25:58;95972.63;;;8.32;100.00
18167;BME280;9208;42.688;23.404;2023-02-28T00:28:24;95975.63;;;8.25;100.00
18167;BME280;9208;42.688;23.404;2023-02-28T00:30:50;95975.50;;;8.29;100.00
18167;BME280;9208;42.688;23.404;2023-02-28T00:33:15;95973.22;;;8.27;100.00
18167;BME280;9208;42.688;23.404;2023-02-28T00:35:41;95971.56;;;8.30;100.00
18167;BME280;9208;42.688;23.404;2023-02-28T00:38:07;95972.00;;;8.28;100.00
18167;BME280;9208;42.688;23.404;2023-02-28T00:40:32;95970.81;;;8.29;100.00
18167;BME280;9208;42.688;23.404;2023-02-28T00:42:57;95979.31;;;8.31;100.00
18167;BME280;9208;42.688;23.404;2023-02-28T00:45:23;95980.97;;;8.38;100.00
18167;BME280;9208;42.688;23.404;2023-02-28T00:47:48;95965.06;;;8.36;100.00
18167;BME280;9208;42.688;23.404;2023-02-28T00:50:24;95951.53;;;8.33;100.00
18167;BME280;9208;42.688;23.404;2023-02-28T00:52:49;95953.50;;;8.32;100.00
18167;BME280;9208;42.688;23.404;2023-02-28T00:55:15;95956.88;;;8.36;100.00
18167;BME280;9208;42.688;23.404;2023-02-28T00:57:40;95942.63;;;8.41;100.00
18167;BME280;9208;42.688;23.404;2023-02-28T01:00:07;95935.63;;;8.31;100.00
18167;BME280;9208;42.688;23.404;2023-02-28T01:02:32;95958.34;;;8.28;100.00
18167;BME280;9208;42.688;23.404;2023-02-28T01:04:58;95974.78;;;8.37;100.00
18167;BME280;9208;42.688;23.404;2023-02-28T01:07:23;95964.56;;;8.29;100.00
18167;BME280;9208;42.688;23.404;2023-02-28T01:09:49;95954.41;;;8.29;100.00
18167;BME280;9208;42.688;23.404;2023-02-28T01:12:15;95958.34;;;8.28;100.00
18167;BME280;9208;42.688;23.404;2023-02-28T01:14:41;95964.44;;;8.32;100.00
18167;BME280;9208;42.688;23.404;2023-02-28T01:17:07;95961.72;;;8.32;100.00
18167;BME280;9208;42.688;23.404;2023-02-28T01:19:32;95956.25;;;8.32;100.00
18167;BME280;9208;42.688;23.404;2023-02-28T01:22:04;95955.63;;;8.28;100.00
18167;BME280;9208;42.688;23.404;2023-02-28T01:24:30;95954.72;;;8.22;100.00
18167;BME280;9208;42.688;23.404;2023-02-28T01:26:56;95944.06;;;8.24;100.00
18167;BME280;9208;42.688;23.404;2023-02-28T01:29:22;95957.59;;;8.28;100.00
18167;BME280;9208;42.688;23.404;2023-02-28T01:31:47;95950.84;;;8.20;100.00
18167;BME280;9208;42.688;23.404;2023-02-28T01:34:12;95947.94;;;8.05;100.00
18167;BME280;9208;42.688;23.404;2023-02-28T01:36:38;95942.03;;;8.07;100.00
18167;BME280;9208;42.688;23.404;2023-02-28T01:39:03;95946.44;;;8.13;100.00
18167;BME280;9208;42.688;23.404;2023-02-28T01:41:31;95951.72;;;8.08;100.00
18167;BME280;9208;42.688;23.404;2023-02-28T01:44:00;95955.34;;;8.05;100.00
18167;BME280;9208;42.688;23.404;2023-02-28T01:46:29;95965.25;;;8.11;100.00
18167;BME280;9208;42.688;23.404;2023-02-28T01:49:01;95955.50;;;8.01;100.00
18167;BME280;9208;42.688;23.404;2023-02-28T01:51:37;95951.66;;;7.90;100.00
18167;BME280;9208;42.688;23.404;2023-02-28T01:54:09;95950.88;;;7.89;100.00
18167;BME280;9208;42.688;23.404;2023-02-28T01:56:43;95950.63;;;7.96;100.00
18167;BME280;9208;42.688;23.404;2023-02-28T01:59:12;95954.69;;;7.92;100.00
18167;BME280;9208;42.688;23.404;2023-02-28T02:01:39;95948.63;;;7.97;100.00
18167;BME280;9208;42.688;23.404;2023-02-28T02:04:04;95950.84;;;7.80;100.00
18167;BME280;9208;42.688;23.404;2023-02-28T02:06:36;95944.19;;;7.90;100.00
18167;BME280;9208;42.688;23.404;2023-02-28T02:09:02;95953.47;;;7.93;100.00
18167;BME280;9208;42.688;23.404;2023-02-28T02:11:28;95954.22;;;7.93;100.00
18167;BME280;9208;42.688;23.404;2023-02-28T02:17:40;95955.03;;;7.72;100.00
18167;BME280;9208;42.688;23.404;2023-02-28T02:36:18;95962.38;;;7.84;100.00
18167;BME280;9208;42.688;23.404;2023-02-28T02:41:55;95968.16;;;7.86;100.00
18167;BME280;9208;42.688;23.404;2023-02-28T02:44:40;95968.63;;;7.85;100.00
18167;BME280;9208;42.688;23.404;2023-02-28T02:47:18;95967.19;;;7.80;100.00
18167;BME280;9208;42.688;23.404;2023-02-28T02:49:57;95968.63;;;7.63;100.00
18167;BME280;9208;42.688;23.404;2023-02-28T02:52:39;95973.63;;;7.65;100.00
18167;BME280;9208;42.688;23.404;2023-02-28T02:55:07;95966.28;;;7.74;100.00
18167;BME280;9208;42.688;23.404;2023-02-28T02:57:47;95972.81;;;7.77;100.00
18167;BME280;9208;42.688;23.404;2023-02-28T03:00:16;95980.22;;;7.76;100.00
18167;BME280;9208;42.688;23.404;2023-02-28T03:02:43;95987.16;;;7.68;100.00
18167;BME280;9208;42.688;23.404;2023-02-28T03:05:23;95986.13;;;7.75;100.00
18167;BME280;9208;42.688;23.404;2023-02-28T03:07:49;95994.34;;;7.84;100.00
18167;BME280;9208;42.688;23.404;2023-02-28T03:10:29;95994.06;;;7.82;100.00
18167;BME280;9208;42.688;23.404;2023-02-28T03:15:43;96004.47;;;7.74;100.00
18167;BME280;9208;42.688;23.404;2023-02-28T03:18:47;96015.13;;;7.81;100.00
18167;BME280;9208;42.688;23.404;2023-02-28T03:21:46;96018.94;;;7.84;100.00
18167;BME280;9208;42.688;23.404;2023-02-28T03:24:43;96010.00;;;7.83;100.00
18167;BME280;9208;42.688;23.404;2023-02-28T03:27:26;96016.19;;;7.84;100.00
18167;BME280;9208;42.688;23.404;2023-02-28T03:30:19;96014.81;;;7.79;100.00
18167;BME280;9208;42.688;23.404;2023-02-28T03:32:55;96011.84;;;7.65;100.00
18167;BME280;9208;42.688;23.404;2023-02-28T03:35:31;96018.94;;;7.62;100.00
18167;BME280;9208;42.688;23.404;2023-02-28T03:38:09;96022.88;;;7.61;100.00
18167;BME280;9208;42.688;23.404;2023-02-28T03:40:44;96020.16;;;7.61;100.00
18167;BME280;9208;42.688;23.404;2023-02-28T03:43:14;96029.84;;;7.62;100.00
18167;BME280;9208;42.688;23.404;2023-02-28T03:45:44;96024.47;;;7.71;100.00
18167;BME280;9208;42.688;23.404;2023-02-28T03:48:22;96028.16;;;7.77;100.00
18167;BME280;9208;42.688;23.404;2023-02-28T03:50:53;96022.81;;;7.74;100.00
18167;BME280;9208;42.688;23.404;2023-02-28T03:53:42;96034.69;;;7.80;100.00
18167;BME280;9208;42.688;23.404;2023-02-28T03:56:19;96037.88;;;7.78;100.00
18167;BME280;9208;42.688;23.404;2023-02-28T04:01:48;96038.69;;;7.66;100.00
18167;BME280;9208;42.688;23.404;2023-02-28T04:04:14;96043.84;;;7.64;100.00
18167;BME280;9208;42.688;23.404;2023-02-28T04:06:41;96045.59;;;7.58;100.00
18167;BME280;9208;42.688;23.404;2023-02-28T04:09:08;96032.28;;;7.60;100.00
18167;BME280;9208;42.688;23.404;2023-02-28T04:11:39;96025.91;;;7.63;100.00
18167;BME280;9208;42.688;23.404;2023-02-28T04:14:06;96033.22;;;7.66;100.00
18167;BME280;9208;42.688;23.404;2023-02-28T04:16:34;96038.69;;;7.66;100.00
18167;BME280;9208;42.688;23.404;2023-02-28T04:19:01;96032.44;;;7.66;100.00
18167;BME280;9208;42.688;23.404;2023-02-28T04:21:42;96036.41;;;7.65;100.00
18167;BME280;9208;42.688;23.404;2023-02-28T04:24:09;96037.75;;;7.60;100.00
18167;BME280;9208;42.688;23.404;2023-02-28T04:26:40;96031.56;;;7.69;100.00
18167;BME280;9208;42.688;23.404;2023-02-28T04:29:06;96032.34;;;7.69;100.00
18167;BME280;9208;42.688;23.404;2023-02-28T04:31:32;96036.41;;;7.65;100.00
18167;BME280;9208;42.688;23.404;2023-02-28T04:33:58;96032.34;;;7.69;100.00
18167;BME280;9208;42.688;23.404;2023-02-28T04:36:23;96035.06;;;7.69;100.00
18167;BME280;9208;42.688;23.404;2023-02-28T04:38:49;96035.81;;;7.70;100.00
18167;BME280;9208;42.688;23.404;2023-02-28T04:41:15;96042.50;;;7.69;100.00
18167;BME280;9208;42.688;23.404;2023-02-28T04:43:41;96054.75;;;7.64;100.00
18167;BME280;9208;42.688;23.404;2023-02-28T04:46:07;96050.53;;;7.72;100.00
18167;BME280;9208;42.688;23.404;2023-02-28T04:48:35;96049.72;;;7.63;100.00
18167;BME280;9208;42.688;23.404;2023-02-28T04:51:06;96046.94;;;7.54;100.00
18167;BME280;9208;42.688;23.404;2023-02-28T04:53:33;96054.69;;;7.55;100.00
18167;BME280;9208;42.688;23.404;2023-02-28T04:55:59;96062.16;;;7.42;100.00
18167;BME280;9208;42.688;23.404;2023-02-28T04:58:25;96062.91;;;7.43;100.00
18167;BME280;9208;42.688;23.404;2023-02-28T05:00:52;96058.00;;;7.38;100.00
18167;BME280;9208;42.688;23.404;2023-02-28T05:03:17;96051.72;;;7.28;100.00
18167;BME280;9208;42.688;23.404;2023-02-28T05:05:43;96052.25;;;7.36;100.00
18167;BME280;9208;42.688;23.404;2023-02-28T05:08:08;96062.50;;;7.32;100.00
18167;BME280;9208;42.688;23.404;2023-02-28T05:10:35;96052.59;;;7.25;100.00
18167;BME280;9208;42.688;23.404;2023-02-28T05:13:01;96055.69;;;7.15;100.00
18167;BME280;9208;42.688;23.404;2023-02-28T05:15:26;96054.28;;;7.10;100.00
18167;BME280;9208;42.688;23.404;2023-02-28T05:17:52;96058.50;;;7.24;100.00
18167;BME280;9208;42.688;23.404;2023-02-28T05:20:17;96061.78;;;7.19;100.00
18167;BME280;9208;42.688;23.404;2023-02-28T05:22:43;96080.44;;;7.20;100.00
18167;BME280;9208;42.688;23.404;2023-02-28T05:25:17;96068.31;;;7.21;100.00
18167;BME280;9208;42.688;23.404;2023-02-28T05:27:43;96078.69;;;7.14;100.00
18167;BME280;9208;42.688;23.404;2023-02-28T05:30:12;96082.72;;;7.22;100.00
18167;BME280;9208;42.688;23.404;2023-02-28T05:32:38;96079.00;;;7.16;100.00
18167;BME280;9208;42.688;23.404;2023-02-28T05:35:04;96072.38;;;7.17;100.00
18167;BME280;9208;42.688;23.404;2023-02-28T05:37:30;96079.13;;;7.12;100.00
18167;BME280;9208;42.688;23.404;2023-02-28T05:39:55;96087.72;;;7.23;100.00
18167;BME280;9208;42.688;23.404;2023-02-28T05:42:21;96084.91;;;7.14;100.00
18167;BME280;9208;42.688;23.404;2023-02-28T05:44:46;96091.13;;;7.15;100.00
18167;BME280;9208;42.688;23.404;2023-02-28T05:47:12;96091.22;;;7.24;100.00
18167;BME280;9208;42.688;23.404;2023-02-28T05:49:40;96100.34;;;7.30;100.00
18167;BME280;9208;42.688;23.404;2023-02-28T05:52:06;96105.28;;;7.35;100.00
18167;BME280;9208;42.688;23.404;2023-02-28T05:54:31;96099.06;;;7.34;100.00
18167;BME280;9208;42.688;23.404;2023-02-28T05:56:57;96102.84;;;7.37;100.00
18167;BME280;9208;42.688;23.404;2023-02-28T05:59:23;96105.28;;;7.35;100.00
18167;BME280;9208;42.688;23.404;2023-02-28T06:01:49;96112.78;;;7.43;100.00
18167;BME280;9208;42.688;23.404;2023-02-28T06:04:16;96106.66;;;7.39;100.00
18167;BME280;9208;42.688;23.404;2023-02-28T06:06:48;96100.13;;;7.37;100.00
18167;BME280;9208;42.688;23.404;2023-02-28T06:09:14;96097.91;;;7.44;100.00
18167;BME280;9208;42.688;23.404;2023-02-28T06:11:40;96102.25;;;7.54;100.00
18167;BME280;9208;42.688;23.404;2023-02-28T06:14:06;96106.81;;;7.57;100.00
18167;BME280;9208;42.688;23.404;2023-02-28T06:16:34;96105.81;;;7.64;100.00
18167;BME280;9208;42.688;23.404;2023-02-28T06:19:02;96103.53;;;7.62;100.00
18167;BME280;9208;42.688;23.404;2023-02-28T06:21:29;96098.66;;;7.57;100.00
18167;BME280;9208;42.688;23.404;2023-02-28T06:23:55;96106.25;;;7.62;100.00
18167;BME280;9208;42.688;23.404;2023-02-28T06:26:21;96110.28;;;7.70;100.00
18167;BME280;9208;42.688;23.404;2023-02-28T06:28:47;96095.84;;;7.70;100.00
18167;BME280;9208;42.688;23.404;2023-02-28T06:31:14;96107.53;;;7.70;100.00
18167;BME280;9208;42.688;23.404;2023-02-28T06:33:41;96100.38;;;7.64;100.00
18167;BME280;9208;42.688;23.404;2023-02-28T06:36:08;96112.16;;;7.61;100.00
18167;BME280;9208;42.688;23.404;2023-02-28T06:38:34;96116.88;;;7.60;100.00
18167;BME280;9208;42.688;23.404;2023-02-28T06:41:00;96112.06;;;7.64;100.00
18167;BME280;9208;42.688;23.404;2023-02-28T06:43:29;96109.00;;;7.62;100.00
18167;BME280;9208;42.688;23.404;2023-02-28T06:45:56;96102.53;;;7.69;100.00
18167;BME280;9208;42.688;23.404;2023-02-28T06:48:22;96116.31;;;7.65;100.00
18167;BME280;9208;42.688;23.404;2023-02-28T06:50:48;96120.25;;;7.64;100.00
18167;BME280;9208;42.688;23.404;2023-02-28T06:53:13;96120.69;;;7.63;100.00
18167;BME280;9208;42.688;23.404;2023-02-28T06:55:40;96115.44;;;7.68;100.00
18167;BME280;9208;42.688;23.404;2023-02-28T06:58:05;96116.50;;;7.71;100.00
18167;BME280;9208;42.688;23.404;2023-02-28T07:00:43;96118.03;;;7.72;100.00
18167;BME280;9208;42.688;23.404;2023-02-28T07:03:09;96131.22;;;7.73;100.00
18167;BME280;9208;42.688;23.404;2023-02-28T07:05:36;96117.47;;;7.77;100.00
18167;BME280;9208;42.688;23.404;2023-02-28T07:08:03;96117.13;;;7.75;100.00
18167;BME280;9208;42.688;23.404;2023-02-28T07:10:29;96117.03;;;7.78;100.00
18167;BME280;9208;42.688;23.404;2023-02-28T07:12:54;96121.56;;;7.81;100.00
18167;BME280;9208;42.688;23.404;2023-02-28T07:15:20;96121.25;;;7.79;100.00
18167;BME280;9208;42.688;23.404;2023-02-28T07:17:45;96123.34;;;7.75;100.00
18167;BME280;9208;42.688;23.404;2023-02-28T07:20:11;96117.66;;;7.82;100.00
18167;BME280;9208;42.688;23.404;2023-02-28T07:22:37;96118.41;;;7.83;100.00
18167;BME280;9208;42.688;23.404;2023-02-28T07:25:04;96118.09;;;7.81;100.00
18167;BME280;9208;42.688;23.404;2023-02-28T07:27:29;96117.84;;;7.88;100.00
18167;BME280;9208;42.688;23.404;2023-02-28T07:29:55;96109.72;;;7.97;100.00
18167;BME280;9208;42.688;23.404;2023-02-28T07:32:20;96118.38;;;7.95;100.00
18167;BME280;9208;42.688;23.404;2023-02-28T07:34:45;96117.03;;;8.00;100.00
18167;BME280;9208;42.688;23.404;2023-02-28T07:37:14;96119.03;;;8.08;100.00
18167;BME280;9208;42.688;23.404;2023-02-28T07:39:40;96120.31;;;8.16;100.00
18167;BME280;9208;42.688;23.404;2023-02-28T07:42:08;96117.22;;;8.27;100.00
18167;BME280;9208;42.688;23.404;2023-02-28T07:44:37;96111.38;;;8.37;100.00
18167;BME280;9208;42.688;23.404;2023-02-28T07:47:09;96113.66;;;8.39;100.00
18167;BME280;9208;42.688;23.404;2023-02-28T07:49:38;96118.69;;;8.40;100.00
18167;BME280;9208;42.688;23.404;2023-02-28T07:52:05;96117.03;;;8.43;100.00
18167;BME280;9208;42.688;23.404;2023-02-28T07:54:31;96113.22;;;8.40;100.00
18167;BME280;9208;42.688;23.404;2023-02-28T07:56:56;96114.28;;;8.43;100.00
18167;BME280;9208;42.688;23.404;2023-02-28T07:59:22;96101.25;;;8.47;100.00
18167;BME280;9208;42.688;23.404;2023-02-28T08:01:47;96103.28;;;8.55;100.00
18167;BME280;9208;42.688;23.404;2023-02-28T08:04:18;96104.38;;;8.67;100.00
18167;BME280;9208;42.688;23.404;2023-02-28T08:06:43;96102.47;;;8.76;100.00
18167;BME280;9208;42.688;23.404;2023-02-28T08:09:09;96101.56;;;8.88;100.00
18167;BME280;9208;42.688;23.404;2023-02-28T08:11:34;96108.88;;;8.91;100.00
18167;BME280;9208;42.688;23.404;2023-02-28T08:14:01;96106.63;;;8.99;100.00
18167;BME280;9208;42.688;23.404;2023-02-28T08:16:26;96109.84;;;9.06;100.00
18167;BME280;9208;42.688;23.404;2023-02-28T08:18:52;96109.41;;;9.17;100.00
18167;BME280;9208;42.688;23.404;2023-02-28T08:21:18;96107.47;;;9.26;100.00
18167;BME280;9208;42.688;23.404;2023-02-28T08:23:48;96101.72;;;9.42;100.00
18167;BME280;9208;42.688;23.404;2023-02-28T08:26:16;96105.06;;;9.64;100.00
18167;BME280;9208;42.688;23.404;2023-02-28T08:28:41;96109.03;;;9.81;100.00
18167;BME280;9208;42.688;23.404;2023-02-28T08:31:09;96104.47;;;9.96;100.00
18167;BME280;9208;42.688;23.404;2023-02-28T08:33:35;96101.75;;;10.05;100.00
18167;BME280;9208;42.688;23.404;2023-02-28T08:36:01;96109.34;;;10.19;100.00
18167;BME280;9208;42.688;23.404;2023-02-28T08:38:26;96109.00;;;10.36;100.00
18167;BME280;9208;42.688;23.404;2023-02-28T08:40:59;96116.91;;;10.52;100.00
18167;BME280;9208;42.688;23.404;2023-02-28T08:43:25;96121.56;;;10.69;100.00
18167;BME280;9208;42.688;23.404;2023-02-28T08:45:55;96122.59;;;10.81;100.00
18167;BME280;9208;42.688;23.404;2023-02-28T08:48:26;96114.94;;;10.94;100.00
18167;BME280;9208;42.688;23.404;2023-02-28T08:51:12;96113.25;;;10.96;100.00
18167;BME280;9208;42.688;23.404;2023-02-28T08:53:39;96108.22;;;10.95;100.00
18167;BME280;9208;42.688;23.404;2023-02-28T08:56:08;96114.44;;;11.04;100.00
18167;BME280;9208;42.688;23.404;2023-02-28T08:58:34;96120.56;;;11.23;100.00
18167;BME280;9208;42.688;23.404;2023-02-28T09:01:00;96124.63;;;11.36;100.00
18167;BME280;9208;42.688;23.404;2023-02-28T09:03:32;96120.88;;;11.48;100.00
18167;BME280;9208;42.688;23.404;2023-02-28T09:05:59;96116.47;;;11.51;100.00
18167;BME280;9208;42.688;23.404;2023-02-28T09:08:27;96114.88;;;11.59;100.00
18167;BME280;9208;42.688;23.404;2023-02-28T09:10:54;96119.00;;;11.63;100.00
18167;BME280;9208;42.688;23.404;2023-02-28T09:13:20;96114.56;;;11.66;100.00
18167;BME280;9208;42.688;23.404;2023-02-28T09:15:46;96113.63;;;11.69;100.00
18167;BME280;9208;42.688;23.404;2023-02-28T09:18:12;96115.13;;;11.70;100.00
18167;BME280;9208;42.688;23.404;2023-02-28T09:20:38;96111.44;;;11.73;100.00
18167;BME280;9208;42.688;23.404;2023-02-28T09:23:05;96113.91;;;11.71;100.00
18167;BME280;9208;42.688;23.404;2023-02-28T09:25:30;96114.03;;;11.76;100.00
18167;BME280;9208;42.688;23.404;2023-02-28T09:27:56;96115.34;;;11.81;100.00
18167;BME280;9208;42.688;23.404;2023-02-28T09:30:21;96113.31;;;11.90;100.00
18167;BME280;9208;42.688;23.404;2023-02-28T09:32:46;96103.25;;;11.87;100.00
18167;BME280;9208;42.688;23.404;2023-02-28T09:35:18;96102.66;;;11.83;100.00
18167;BME280;9208;42.688;23.404;2023-02-28T09:37:44;96112.84;;;11.92;100.00
18167;BME280;9208;42.688;23.404;2023-02-28T09:40:10;96107.06;;;12.04;100.00
18167;BME280;9208;42.688;23.404;2023-02-28T09:42:37;96113.34;;;12.05;100.00
18167;BME280;9208;42.688;23.404;2023-02-28T09:45:27;96112.00;;;12.00;100.00
18167;BME280;9208;42.688;23.404;2023-02-28T09:47:56;96107.06;;;12.04;100.00
18167;BME280;9208;42.688;23.404;2023-02-28T09:50:31;96101.56;;;12.04;100.00
18167;BME280;9208;42.688;23.404;2023-02-28T09:53:02;96099.88;;;12.07;100.00
18167;BME280;9208;42.688;23.404;2023-02-28T09:58:01;96105.94;;;12.11;100.00
18167;BME280;9208;42.688;23.404;2023-02-28T10:00:34;96102.13;;;11.94;100.00
18167;BME280;9208;42.688;23.404;2023-02-28T10:06:07;96099.69;;;11.72;100.00
18167;BME280;9208;42.688;23.404;2023-02-28T10:08:40;96094.09;;;11.67;100.00
18167;BME280;9208;42.688;23.404;2023-02-28T10:11:12;96097.59;;;11.67;100.00
18167;BME280;9208;42.688;23.404;2023-02-28T10:16:46;96093.16;;;11.70;100.00
18167;BME280;9208;42.688;23.404;2023-02-28T10:19:39;96088.53;;;11.76;100.00
18167;BME280;9208;42.688;23.404;2023-02-28T10:22:34;96088.91;;;11.83;100.00
18167;BME280;9208;42.688;23.404;2023-02-28T10:25:04;96087.59;;;11.79;100.00
18167;BME280;9208;42.688;23.404;2023-02-28T10:27:31;96078.91;;;11.80;100.00
18167;BME280;9208;42.688;23.404;2023-02-28T10:30:01;96071.97;;;11.85;100.00
18167;BME280;9208;42.688;23.404;2023-02-28T10:32:34;96077.84;;;11.92;100.00
18167;BME280;9208;42.688;23.404;2023-02-28T10:37:37;96062.91;;;11.93;100.00
18167;BME280;9208;42.688;23.404;2023-02-28T10:40:05;96058.06;;;12.03;100.00
18167;BME280;9208;42.688;23.404;2023-02-28T10:42:31;96061.03;;;12.14;100.00
18167;BME280;9208;42.688;23.404;2023-02-28T10:45:17;96062.25;;;12.13;100.00
18167;BME280;9208;42.688;23.404;2023-02-28T10:48:00;96058.09;;;12.17;100.00
18167;BME280;9208;42.688;23.404;2023-02-28T10:55:36;96054.03;;;12.42;100.00
18167;BME280;9208;42.688;23.404;2023-02-28T10:58:02;96036.59;;;12.30;100.00
18167;BME280;9208;42.688;23.404;2023-02-28T11:00:34;96044.16;;;12.35;100.00
18167;BME280;9208;42.688;23.404;2023-02-28T11:02:59;96036.34;;;12.63;100.00
18167;BME280;9208;42.688;23.404;2023-02-28T11:05:33;96036.53;;;12.74;100.00
18167;BME280;9208;42.688;23.404;2023-02-28T11:08:12;96031.84;;;12.94;100.00
18167;BME280;9208;42.688;23.404;2023-02-28T11:10:39;96027.00;;;13.04;100.00
18167;BME280;9208;42.688;23.404;2023-02-28T11:13:05;96027.81;;;13.10;100.00
18167;BME280;9208;42.688;23.404;2023-02-28T11:15:33;96024.19;;;13.18;100.00
18167;BME280;9208;42.688;23.404;2023-02-28T11:18:21;96026.19;;;13.18;100.00
18167;BME280;9208;42.688;23.404;2023-02-28T11:20:53;96027.81;;;13.30;100.00
18167;BME280;9208;42.688;23.404;2023-02-28T11:23:20;96022.31;;;13.30;100.00
18167;BME280;9208;42.688;23.404;2023-02-28T11:25:59;96021.66;;;13.35;100.00
18167;BME280;9208;42.688;23.404;2023-02-28T11:28:36;96020.69;;;13.38;100.00
18167;BME280;9208;42.688;23.404;2023-02-28T11:36:30;96008.97;;;13.43;100.00
18167;BME280;9208;42.688;23.404;2023-02-28T11:39:07;96016.34;;;13.51;100.00
18167;BME280;9208;42.688;23.404;2023-02-28T11:46:51;96009.38;;;13.56;100.00
18167;BME280;9208;42.688;23.404;2023-02-28T11:52:48;96006.22;;;13.63;100.00
18167;BME280;9208;42.688;23.404;2023-02-28T12:10:33;96014.97;;;13.61;100.00
18167;BME280;9208;42.688;23.404;2023-02-28T12:13:20;96002.97;;;13.64;100.00
18167;BME280;9208;42.688;23.404;2023-02-28T12:21:05;96000.72;;;13.88;100.00
18167;BME280;9208;42.688;23.404;2023-02-28T12:23:57;95993.16;;;13.83;100.00
18167;BME280;9208;42.688;23.404;2023-02-28T12:31:45;95996.72;;;13.89;100.00
18167;BME280;9208;42.688;23.404;2023-02-28T12:34:15;95999.69;;;13.86;100.00
18167;BME280;9208;42.688;23.404;2023-02-28T12:36:43;96003.00;;;13.90;100.00
18167;BME280;9208;42.688;23.404;2023-02-28T12:41:54;95995.53;;;13.96;100.00
18167;BME280;9208;42.688;23.404;2023-02-28T12:46:59;95984.25;;;13.94;100.00
18167;BME280;9208;42.688;23.404;2023-02-28T12:51:57;95983.25;;;13.97;100.00
18167;BME280;9208;42.688;23.404;2023-02-28T12:58:05;95974.44;;;13.93;100.00
18167;BME280;9208;42.688;23.404;2023-02-28T13:00:36;95976.88;;;13.85;100.00
18167;BME280;9208;42.688;23.404;2023-02-28T13:06:01;95977.72;;;13.91;100.00
18167;BME280;9208;42.688;23.404;2023-02-28T13:09:00;95984.66;;;13.87;100.00
18167;BME280;9208;42.688;23.404;2023-02-28T13:11:29;95975.91;;;13.88;100.00
18167;BME280;9208;42.688;23.404;2023-02-28T13:14:04;95972.88;;;13.86;100.00
18167;BME280;9208;42.688;23.404;2023-02-28T13:16:59;95985.22;;;13.91;100.00
18167;BME280;9208;42.688;23.404;2023-02-28T13:19:28;95984.66;;;13.87;100.00
18167;BME280;9208;42.688;23.404;2023-02-28T13:21:55;95977.09;;;13.82;100.00
18167;BME280;9208;42.688;23.404;2023-02-28T13:29:38;95967.75;;;13.74;100.00
18167;BME280;9208;42.688;23.404;2023-02-28T13:34:41;95971.97;;;13.69;100.00
18167;BME280;9208;42.688;23.404;2023-02-28T13:42:34;95971.50;;;13.71;100.00
18167;BME280;9208;42.688;23.404;2023-02-28T13:47:42;95964.34;;;13.39;100.00
18167;BME280;9208;42.688;23.404;2023-02-28T13:50:34;95962.28;;;13.34;100.00
18167;BME280;9208;42.688;23.404;2023-02-28T14:06:37;95965.66;;;13.43;100.00
18167;BME280;9208;42.688;23.404;2023-02-28T14:09:16;95961.75;;;13.30;100.00
18167;BME280;9208;42.688;23.404;2023-02-28T14:11:44;95967.47;;;13.06;100.00
18167;BME280;9208;42.688;23.404;2023-02-28T14:17:07;95965.56;;;12.78;100.00
18167;BME280;9208;42.688;23.404;2023-02-28T14:19:36;95965.22;;;12.70;100.00
18167;BME280;9208;42.688;23.404;2023-02-28T14:25:15;95955.00;;;12.56;100.00
18167;BME280;9208;42.688;23.404;2023-02-28T14:27:50;95962.59;;;12.47;100.00
18167;BME280;9208;42.688;23.404;2023-02-28T14:36:42;95968.31;;;12.29;100.00
18167;BME280;9208;42.688;23.404;2023-02-28T14:39:14;95970.97;;;12.38;100.00
18167;BME280;9208;42.688;23.404;2023-02-28T14:41:41;95976.94;;;12.36;100.00
18167;BME280;9208;42.688;23.404;2023-02-28T14:44:25;95963.59;;;12.29;100.00
18167;BME280;9208;42.688;23.404;2023-02-28T14:47:00;95970.13;;;12.32;100.00
18167;BME280;9208;42.688;23.404;2023-02-28T14:49:35;95972.22;;;12.37;100.00
18167;BME280;9208;42.688;23.404;2023-02-28T14:54:28;95973.47;;;12.07;100.00
18167;BME280;9208;42.688;23.404;2023-02-28T14:56:54;95973.72;;;12.09;100.00
18167;BME280;9208;42.688;23.404;2023-02-28T14:59:34;95969.66;;;12.04;100.00
18167;BME280;9208;42.688;23.404;2023-02-28T15:02:19;95973.00;;;12.08;100.00
18167;BME280;9208;42.688;23.404;2023-02-28T15:04:53;95975.94;;;12.05;100.00
18167;BME280;9208;42.688;23.404;2023-02-28T15:07:19;95971.75;;;12.09;100.00
18167;BME280;9208;42.688;23.404;2023-02-28T15:09:44;95974.69;;;12.06;100.00
18167;BME280;9208;42.688;23.404;2023-02-28T15:12:14;95969.66;;;12.04;100.00
18167;BME280;9208;42.688;23.404;2023-02-28T15:14:42;95968.16;;;11.89;100.00
18167;BME280;9208;42.688;23.404;2023-02-28T15:17:11;95965.97;;;11.93;100.00
18167;BME280;9208;42.688;23.404;2023-02-28T15:19:46;95971.38;;;11.87;100.00
18167;BME280;9208;42.688;23.404;2023-02-28T15:22:17;95971.25;;;11.82;100.00
18167;BME280;9208;42.688;23.404;2023-02-28T15:24:48;95969.66;;;11.90;100.00
18167;BME280;9208;42.688;23.404;2023-02-28T15:27:20;95969.00;;;11.95;100.00
18167;BME280;9208;42.688;23.404;2023-02-28T15:29:53;95977.06;;;11.84;100.00
18167;BME280;9208;42.688;23.404;2023-02-28T15:32:40;95982.56;;;11.84;100.00